Time;durP1;ratioP1;P1;durP2;ratioP2;P2;SDS_P1;SDS_P2;PMS_P1;PMS_P2;Temp;Humidity;BMP_temperature;BMP_pressure;BME280_temperature;BME280_humidity;BME280_pressure;Samples;Min_cycle;Max_cycle;Signal;HPM_P1;HPM_P2
2023/09/28 00:02:09;;;;;;;7.05;5.88;;;18.00;99.90;;;;;;6210492;23;20024;-83
2023/09/28 00:04:35;;;;;;;7.53;5.97;;;18.00;99.90;;;;;;6183820;23;20021;-82
2023/09/28 00:07:00;;;;;;;13.15;6.70;;;18.00;99.90;;;;;;6210460;23;20013;-82
2023/09/28 00:09:26;;;;;;;8.57;6.72;;;18.00;99.90;;;;;;6210370;23;20063;-83
2023/09/28 00:11:52;;;;;;;16.02;6.28;;;18.10;99.90;;;;;;6183869;23;20059;-82
2023/09/28 00:14:18;;;;;;;9.68;6.03;;;18.10;99.90;;;;;;6210991;23;20021;-82
2023/09/28 00:16:44;;;;;;;10.02;5.72;;;18.10;99.90;;;;;;6210385;23;20063;-81
2023/09/28 00:19:10;;;;;;;10.15;6.20;;;18.10;99.90;;;;;;6184058;23;20024;-82
2023/09/28 00:21:36;;;;;;;7.18;5.70;;;18.10;99.90;;;;;;6211011;23;20021;-81
2023/09/28 00:24:02;;;;;;;7.28;5.85;;;18.10;99.90;;;;;;6183690;23;20039;-83
2023/09/28 00:26:28;;;;;;;9.70;6.50;;;18.10;99.90;;;;;;6211255;23;20096;-83
2023/09/28 00:28:54;;;;;;;6.78;5.20;;;18.10;99.90;;;;;;6214428;23;20044;-82
2023/09/28 00:31:19;;;;;;;12.10;6.07;;;18.00;99.90;;;;;;6214008;23;20041;-82
2023/09/28 00:33:45;;;;;;;11.38;5.97;;;18.00;99.90;;;;;;6210752;23;20353;-82
2023/09/28 00:36:11;;;;;;;9.77;5.95;;;18.00;99.90;;;;;;6210722;23;20028;-82
2023/09/28 00:38:37;;;;;;;8.98;5.80;;;18.00;99.90;;;;;;6183732;23;20039;-83
2023/09/28 00:41:03;;;;;;;7.68;5.60;;;18.00;99.90;;;;;;6210639;23;20075;-82
2023/09/28 00:43:29;;;;;;;9.68;5.75;;;18.00;99.90;;;;;;6210381;23;20027;-82
2023/09/28 00:45:55;;;;;;;9.32;5.68;;;18.00;99.90;;;;;;6210802;23;20091;-81
2023/09/28 00:48:21;;;;;;;8.40;5.75;;;18.00;99.90;;;;;;6185119;23;20341;-83
2023/09/28 00:50:48;;;;;;;7.90;6.38;;;18.00;99.90;;;;;;6212229;23;20023;-82
2023/09/28 00:53:14;;;;;;;8.15;6.68;;;18.00;99.90;;;;;;6211938;23;20052;-82
2023/09/28 00:55:42;;;;;;;8.65;6.45;;;18.00;99.90;;;;;;6185341;23;20016;-82
2023/09/28 00:58:09;;;;;;;10.07;6.53;;;18.00;99.90;;;;;;6211912;23;20020;-82
2023/09/28 01:00:36;;;;;;;9.25;6.72;;;18.00;99.90;;;;;;6212231;23;20017;-82
2023/09/28 01:03:06;;;;;;;7.80;6.03;;;18.00;99.90;;;;;;6185383;23;20338;-82
2023/09/28 01:05:39;;;;;;;9.98;6.85;;;18.00;99.90;;;;;;6212181;23;20029;-82
2023/09/28 01:08:06;;;;;;;9.70;6.30;;;18.00;99.90;;;;;;6211754;23;20075;-81
2023/09/28 01:10:35;;;;;;;9.35;6.70;;;18.00;99.90;;;;;;6212404;23;20020;-82
2023/09/28 01:13:11;;;;;;;8.95;6.82;;;18.00;99.90;;;;;;6184990;23;20024;-82
2023/09/28 01:15:48;;;;;;;9.52;6.40;;;18.00;99.90;;;;;;6160254;23;20119;-81
2023/09/28 01:18:18;;;;;;;7.65;6.53;;;18.00;99.90;;;;;;6185309;23;20063;-83
2023/09/28 01:20:45;;;;;;;9.35;6.40;;;18.00;99.90;;;;;;6185508;23;20505;-81
2023/09/28 01:23:11;;;;;;;8.05;6.55;;;18.00;99.90;;;;;;6186652;23;20018;-82
2023/09/28 01:25:38;;;;;;;9.27;7.22;;;18.00;99.90;;;;;;6214677;23;20074;-81
2023/09/28 01:28:05;;;;;;;11.57;6.47;;;18.00;99.90;;;;;;6213389;23;20048;-82
2023/09/28 01:30:31;;;;;;;7.30;6.50;;;18.00;99.90;;;;;;6211986;23;20460;-82
2023/09/28 01:32:57;;;;;;;8.68;6.22;;;18.00;99.90;;;;;;6211237;23;20024;-81
2023/09/28 01:35:23;;;;;;;8.45;6.13;;;18.00;99.90;;;;;;6211760;23;20024;-81
2023/09/28 01:37:49;;;;;;;10.05;6.60;;;18.00;99.90;;;;;;6211433;23;20054;-81
2023/09/28 01:40:16;;;;;;;8.55;6.45;;;18.00;99.90;;;;;;6184753;23;20099;-81
2023/09/28 01:42:43;;;;;;;14.52;6.55;;;18.00;99.90;;;;;;6211339;23;20614;-81
2023/09/28 01:45:09;;;;;;;7.30;6.15;;;18.00;99.90;;;;;;6211486;23;20424;-81
2023/09/28 01:47:35;;;;;;;7.85;6.60;;;17.90;99.90;;;;;;6211445;23;20020;-81
2023/09/28 01:50:01;;;;;;;8.15;6.00;;;17.90;99.90;;;;;;6184745;23;20020;-80
2023/09/28 01:52:27;;;;;;;10.05;6.25;;;17.90;99.90;;;;;;6210969;23;20104;-82
2023/09/28 01:54:53;;;;;;;10.02;6.65;;;17.90;99.90;;;;;;6211328;23;20048;-81
2023/09/28 01:57:18;;;;;;;12.35;7.13;;;17.90;99.90;;;;;;6184345;23;20021;-81
2023/09/28 01:59:44;;;;;;;9.85;5.60;;;17.90;99.90;;;;;;6185115;23;20091;-81
2023/09/28 02:02:10;;;;;;;8.32;6.15;;;17.90;99.90;;;;;;6184589;23;20024;-81
2023/09/28 02:04:39;;;;;;;10.23;6.68;;;17.90;99.90;;;;;;6184991;23;20086;-80
2023/09/28 02:07:06;;;;;;;10.02;6.00;;;17.80;99.90;;;;;;6210738;23;20021;-81
2023/09/28 02:09:32;;;;;;;11.30;6.50;;;17.90;99.90;;;;;;6184564;23;20020;-81
2023/09/28 02:11:58;;;;;;;11.95;6.63;;;17.80;99.90;;;;;;6184227;23;20062;-81
2023/09/28 02:14:23;;;;;;;11.55;5.88;;;17.80;99.90;;;;;;6159396;23;20027;-81
2023/09/28 02:16:52;;;;;;;11.10;6.25;;;17.80;99.90;;;;;;6159357;23;20020;-81
2023/09/28 02:19:18;;;;;;;11.63;5.78;;;17.80;99.90;;;;;;6184209;23;20024;-82
2023/09/28 02:21:46;;;;;;;11.45;6.15;;;17.80;99.90;;;;;;6184204;23;20024;-81
2023/09/28 02:24:12;;;;;;;9.45;6.30;;;17.70;99.90;;;;;;6159783;23;20342;-82
2023/09/28 02:26:38;;;;;;;10.13;5.82;;;17.70;99.90;;;;;;6210986;23;20052;-82
2023/09/28 02:29:04;;;;;;;11.13;6.22;;;17.70;99.90;;;;;;6184233;23;20017;-82
2023/09/28 02:31:31;;;;;;;8.15;6.28;;;17.70;99.90;;;;;;6211295;23;20801;-81
2023/09/28 02:33:57;;;;;;;11.10;6.68;;;17.70;99.90;;;;;;6183811;23;20564;-81
2023/09/28 02:36:23;;;;;;;9.57;6.60;;;17.70;99.90;;;;;;6211056;23;20052;-82
2023/09/28 02:38:51;;;;;;;10.65;6.50;;;17.60;99.90;;;;;;6184070;23;20337;-81
2023/09/28 02:41:19;;;;;;;8.93;6.50;;;17.60;99.90;;;;;;6210845;23;20457;-82
2023/09/28 02:43:45;;;;;;;9.00;6.82;;;17.60;99.90;;;;;;6184002;23;20024;-82
2023/09/28 02:46:13;;;;;;;8.88;6.65;;;17.50;99.90;;;;;;6211292;23;20017;-81
2023/09/28 02:48:38;;;;;;;9.70;6.38;;;17.50;99.90;;;;;;6183782;23;20035;-82
2023/09/28 02:51:06;;;;;;;9.55;6.32;;;17.50;99.90;;;;;;6210710;23;20043;-81
2023/09/28 02:53:32;;;;;;;8.40;6.53;;;17.50;99.90;;;;;;6184054;23;20339;-81
2023/09/28 02:55:58;;;;;;;10.45;6.13;;;17.50;99.90;;;;;;6183837;23;20059;-82
2023/09/28 02:58:24;;;;;;;8.95;6.57;;;17.50;99.90;;;;;;6210537;23;20028;-82
2023/09/28 03:00:52;;;;;;;11.65;6.75;;;17.40;99.90;;;;;;6211049;23;20043;-81
2023/09/28 03:03:18;;;;;;;8.55;5.47;;;17.40;99.90;;;;;;6183569;23;20100;-81
2023/09/28 03:05:44;;;;;;;9.35;6.32;;;17.40;99.90;;;;;;6211197;23;20059;-80
2023/09/28 03:08:14;;;;;;;8.07;5.75;;;17.40;99.90;;;;;;6211106;23;20076;-81
2023/09/28 03:10:43;;;;;;;8.52;5.65;;;17.40;99.90;;;;;;6210777;23;20025;-80
2023/09/28 03:13:09;;;;;;;7.68;5.43;;;17.40;99.90;;;;;;6159618;23;20024;-81
2023/09/28 03:15:35;;;;;;;8.57;5.63;;;17.30;99.90;;;;;;6184163;23;20063;-81
2023/09/28 03:18:02;;;;;;;6.72;5.68;;;17.40;99.90;;;;;;6184051;23;20023;-81
2023/09/28 03:20:30;;;;;;;7.47;5.18;;;17.30;99.90;;;;;;6212583;23;20020;-81
2023/09/28 03:22:56;;;;;;;9.10;5.53;;;17.30;99.90;;;;;;6212512;23;20350;-81
2023/09/28 03:25:22;;;;;;;8.35;5.53;;;17.30;99.90;;;;;;6211249;23;20017;-81
2023/09/28 03:27:52;;;;;;;7.55;5.47;;;17.30;99.90;;;;;;6211127;23;20016;-81
2023/09/28 03:30:20;;;;;;;10.00;5.35;;;17.30;99.90;;;;;;6210945;23;20021;-81
2023/09/28 03:32:47;;;;;;;7.35;4.95;;;17.30;99.90;;;;;;6210684;23;20032;-81
2023/09/28 03:35:13;;;;;;;8.00;4.63;;;17.30;99.90;;;;;;6210608;23;20025;-80
2023/09/28 03:37:40;;;;;;;6.30;4.68;;;17.30;99.90;;;;;;6183861;23;20027;-81
2023/09/28 03:40:10;;;;;;;7.57;4.97;;;17.30;99.90;;;;;;6210635;23;20020;-82
2023/09/28 03:42:40;;;;;;;7.57;4.47;;;17.30;99.90;;;;;;6210583;23;20024;-81
2023/09/28 03:45:09;;;;;;;9.68;4.72;;;17.20;99.90;;;;;;6210648;23;20322;-82
2023/09/28 03:47:36;;;;;;;8.80;4.53;;;17.20;99.90;;;;;;6183459;23;20091;-82
2023/09/28 03:50:03;;;;;;;5.22;4.72;;;17.20;99.90;;;;;;6210724;23;20413;-82
2023/09/28 03:52:30;;;;;;;7.70;4.38;;;17.20;99.90;;;;;;6210276;23;20074;-83
2023/09/28 03:54:56;;;;;;;7.03;4.57;;;17.20;99.90;;;;;;6210386;23;20017;-83
2023/09/28 03:57:22;;;;;;;10.43;4.85;;;17.10;99.90;;;;;;6210378;23;20033;-81
2023/09/28 03:59:49;;;;;;;7.68;5.03;;;17.10;99.90;;;;;;6184072;23;20024;-81
2023/09/28 04:02:15;;;;;;;12.30;5.30;;;17.00;99.90;;;;;;6183636;23;20083;-81
2023/09/28 04:04:40;;;;;;;9.15;5.32;;;17.00;99.90;;;;;;6183846;23;20353;-80
2023/09/28 04:07:08;;;;;;;11.23;5.55;;;17.00;99.90;;;;;;6183668;23;20067;-81
2023/09/28 04:09:34;;;;;;;6.63;4.75;;;17.00;99.90;;;;;;6210240;23;20663;-81
2023/09/28 04:12:00;;;;;;;8.05;5.20;;;16.90;99.90;;;;;;6183798;23;20020;-81
2023/09/28 04:14:27;;;;;;;6.95;5.05;;;16.90;99.90;;;;;;6183518;23;20096;-81
2023/09/28 04:16:54;;;;;;;9.38;5.57;;;16.90;99.90;;;;;;6210349;23;20428;-81
2023/09/28 04:19:19;;;;;;;7.80;4.57;;;16.90;99.90;;;;;;6210554;23;20016;-80
2023/09/28 04:21:45;;;;;;;8.35;4.90;;;16.80;99.90;;;;;;6211783;23;20095;-81
2023/09/28 04:24:11;;;;;;;8.27;5.50;;;16.80;99.90;;;;;;6212735;23;20048;-81
2023/09/28 04:26:37;;;;;;;8.43;5.05;;;16.80;99.90;;;;;;6212673;23;20044;-81
2023/09/28 04:29:03;;;;;;;9.82;5.38;;;16.80;99.90;;;;;;6212210;23;20353;-80
2023/09/28 04:31:29;;;;;;;7.43;5.30;;;16.80;99.90;;;;;;6212015;23;20020;-80
2023/09/28 04:33:56;;;;;;;9.88;5.40;;;16.80;99.90;;;;;;6211920;23;20345;-81
2023/09/28 04:36:22;;;;;;;7.50;5.65;;;16.80;99.90;;;;;;6212165;23;20020;-81
2023/09/28 04:38:49;;;;;;;6.97;5.40;;;16.70;99.90;;;;;;6185142;23;20520;-81
2023/09/28 04:41:16;;;;;;;6.90;5.22;;;16.70;99.90;;;;;;6212192;23;20020;-81
2023/09/28 04:43:41;;;;;;;6.90;5.07;;;16.70;99.90;;;;;;6212084;23;20012;-81
2023/09/28 04:46:07;;;;;;;7.65;5.68;;;16.70;99.90;;;;;;6211756;23;20455;-80
2023/09/28 04:48:33;;;;;;;7.13;4.93;;;16.70;99.90;;;;;;6212011;23;20027;-80
2023/09/28 04:50:59;;;;;;;9.13;5.20;;;16.70;99.90;;;;;;6212133;23;20019;-81
2023/09/28 04:53:26;;;;;;;8.18;5.63;;;16.70;99.90;;;;;;6212195;23;20517;-81
2023/09/28 04:55:52;;;;;;;6.70;5.47;;;16.70;99.90;;;;;;6185268;23;20449;-81
2023/09/28 04:58:18;;;;;;;8.23;5.13;;;16.60;99.90;;;;;;6184759;23;20029;-81
2023/09/28 05:00:44;;;;;;;11.90;5.53;;;16.60;99.90;;;;;;6211936;23;20024;-81
2023/09/28 05:03:11;;;;;;;8.65;6.03;;;16.60;99.90;;;;;;6212200;23;20099;-80
2023/09/28 05:05:37;;;;;;;8.25;5.50;;;16.60;99.90;;;;;;6211957;23;20092;-80
2023/09/28 05:08:03;;;;;;;9.30;5.88;;;16.60;99.90;;;;;;6212093;23;20021;-80
2023/09/28 05:10:29;;;;;;;9.70;5.55;;;16.60;99.90;;;;;;6212016;23;20021;-80
2023/09/28 05:12:55;;;;;;;6.88;5.28;;;16.60;99.90;;;;;;6211543;23;20064;-80
2023/09/28 05:15:20;;;;;;;8.00;5.63;;;16.60;99.90;;;;;;6211581;23;20028;-80
2023/09/28 05:17:47;;;;;;;7.57;6.13;;;16.50;99.90;;;;;;6212024;23;20021;-81
2023/09/28 05:20:13;;;;;;;7.80;5.65;;;16.60;99.90;;;;;;6211859;23;20024;-81
2023/09/28 05:22:38;;;;;;;7.43;5.85;;;16.50;99.90;;;;;;6212396;23;20032;-81
2023/09/28 05:25:06;;;;;;;13.23;6.00;;;16.50;99.90;;;;;;6212097;23;20017;-81
2023/09/28 05:27:33;;;;;;;7.30;5.45;;;16.50;99.90;;;;;;6211632;23;20534;-81
2023/09/28 05:29:59;;;;;;;8.98;5.50;;;16.40;99.90;;;;;;6184823;23;20055;-81
2023/09/28 05:32:25;;;;;;;8.57;6.30;;;16.40;99.90;;;;;;6184238;23;20032;-81
2023/09/28 05:34:51;;;;;;;8.07;5.50;;;16.40;99.90;;;;;;6184720;23;20023;-81
2023/09/28 05:37:16;;;;;;;10.07;6.15;;;16.40;99.90;;;;;;6185017;23;20034;-81
2023/09/28 05:39:42;;;;;;;12.48;6.28;;;16.40;99.90;;;;;;6184725;23;20537;-81
2023/09/28 05:42:08;;;;;;;12.75;5.53;;;16.40;99.90;;;;;;6184439;23;20024;-85
2023/09/28 05:44:34;;;;;;;11.52;6.10;;;16.40;99.90;;;;;;6211723;23;20016;-85
2023/09/28 05:47:00;;;;;;;10.93;5.90;;;16.40;99.90;;;;;;6184888;23;20540;-85
2023/09/28 05:49:26;;;;;;;13.68;6.05;;;16.40;99.90;;;;;;6184980;23;20028;-81
2023/09/28 05:51:52;;;;;;;11.02;5.43;;;16.40;99.90;;;;;;6184590;23;20380;-75
2023/09/28 05:54:18;;;;;;;7.40;5.38;;;16.40;99.90;;;;;;6211802;23;20050;-82
2023/09/28 05:56:44;;;;;;;8.77;5.57;;;16.40;99.90;;;;;;6185007;23;20024;-86
2023/09/28 05:59:10;;;;;;;8.43;5.88;;;16.40;99.90;;;;;;6211917;23;20432;-87
2023/09/28 06:01:39;;;;;;;7.57;5.53;;;16.40;99.90;;;;;;6212610;23;20013;-86
2023/09/28 06:04:05;;;;;;;9.45;5.82;;;16.40;99.90;;;;;;6212307;23;20032;-86
2023/09/28 06:06:31;;;;;;;10.98;5.75;;;16.50;99.90;;;;;;6185426;23;20410;-87
2023/09/28 06:08:57;;;;;;;9.85;5.30;;;16.40;99.90;;;;;;6187694;23;20020;-83
2023/09/28 06:11:23;;;;;;;8.82;5.60;;;16.40;99.90;;;;;;6215118;23;20106;-83
2023/09/28 06:13:49;;;;;;;9.30;5.78;;;16.50;99.90;;;;;;6187581;23;20019;-84
2023/09/28 06:16:15;;;;;;;11.98;4.72;;;16.50;99.90;;;;;;6212882;23;20590;-83
2023/09/28 06:18:42;;;;;;;7.88;5.00;;;16.50;99.90;;;;;;6211962;23;20084;-83
2023/09/28 06:21:08;;;;;;;12.98;4.90;;;16.50;99.90;;;;;;6184796;23;20071;-82
2023/09/28 06:23:35;;;;;;;7.90;5.03;;;16.60;99.90;;;;;;6184880;23;20082;-82
2023/09/28 06:26:01;;;;;;;6.63;4.90;;;16.50;99.90;;;;;;6160459;23;20027;-82
2023/09/28 06:28:28;;;;;;;7.95;4.82;;;16.60;99.90;;;;;;6211332;23;20062;-86
2023/09/28 06:30:55;;;;;;;11.43;5.38;;;16.60;99.90;;;;;;6184501;23;20453;-84
2023/09/28 06:33:24;;;;;;;10.10;4.07;;;16.60;99.90;;;;;;6184378;23;20025;-84
2023/09/28 06:35:51;;;;;;;12.50;4.82;;;16.60;99.90;;;;;;6210936;23;20025;-81
2023/09/28 06:38:17;;;;;;;11.40;4.55;;;16.60;99.90;;;;;;6211070;23;20023;-84
2023/09/28 06:40:45;;;;;;;12.00;4.65;;;16.70;99.90;;;;;;6159570;23;20021;-85
2023/09/28 06:43:11;;;;;;;7.57;4.00;;;16.70;99.90;;;;;;6210801;23;20075;-84
2023/09/28 06:45:37;;;;;;;14.88;4.32;;;16.70;99.90;;;;;;6183727;23;20028;-83
2023/09/28 06:48:03;;;;;;;11.85;4.10;;;16.70;99.90;;;;;;6211281;23;20020;-83
2023/09/28 06:50:29;;;;;;;11.73;4.20;;;16.80;99.90;;;;;;6210668;23;20366;-82
2023/09/28 06:52:55;;;;;;;14.93;4.22;;;16.80;99.90;;;;;;6210688;23;20075;-82
2023/09/28 06:55:23;;;;;;;6.45;3.63;;;16.80;99.90;;;;;;6183936;23;20326;-83
2023/09/28 06:57:50;;;;;;;12.20;4.05;;;16.80;99.90;;;;;;6184023;23;20020;-82
2023/09/28 07:00:16;;;;;;;15.32;4.15;;;16.90;99.90;;;;;;6211191;23;20017;-83
2023/09/28 07:02:47;;;;;;;7.72;3.30;;;16.90;99.90;;;;;;6184041;23;20138;-83
2023/09/28 07:05:14;;;;;;;14.15;4.00;;;16.90;99.90;;;;;;6211156;23;20024;-84
2023/09/28 07:07:43;;;;;;;10.13;4.05;;;16.90;99.90;;;;;;6158891;23;20087;-80
2023/09/28 07:10:12;;;;;;;14.70;3.95;;;16.90;99.90;;;;;;6211452;23;20009;-86
2023/09/28 07:12:38;;;;;;;13.27;4.80;;;16.90;99.90;;;;;;6184562;23;20197;-85
2023/09/28 07:15:04;;;;;;;19.95;4.15;;;16.90;99.90;;;;;;6185248;23;20464;-85
2023/09/28 07:17:30;;;;;;;17.88;5.63;;;17.00;99.90;;;;;;6211030;23;20100;-84
2023/09/28 07:19:56;;;;;;;14.90;3.83;;;17.00;99.90;;;;;;6211025;23;20024;-89
2023/09/28 07:22:22;;;;;;;19.17;5.72;;;17.00;99.90;;;;;;6210845;23;20079;-80
2023/09/28 07:24:48;;;;;;;13.85;4.00;;;17.00;99.90;;;;;;6208184;23;20433;-83
2023/09/28 07:27:14;;;;;;;20.27;3.65;;;17.10;99.90;;;;;;6210219;23;20020;-75
2023/09/28 07:29:39;;;;;;;11.40;3.67;;;17.10;99.90;;;;;;6210048;23;20020;-75
2023/09/28 07:32:08;;;;;;;14.68;4.53;;;17.10;99.90;;;;;;6209844;23;20063;-73
2023/09/28 07:34:34;;;;;;;17.77;4.20;;;17.10;99.90;;;;;;6209743;23;20063;-78
2023/09/28 07:37:01;;;;;;;22.83;4.20;;;17.20;99.90;;;;;;6209814;23;20032;-78
2023/09/28 07:39:26;;;;;;;14.32;3.83;;;17.20;99.90;;;;;;6209921;23;20021;-72
2023/09/28 07:41:52;;;;;;;17.42;3.75;;;17.20;99.90;;;;;;6209556;23;20100;-79
2023/09/28 07:44:19;;;;;;;19.35;3.65;;;17.20;99.90;;;;;;6209979;23;20024;-78
2023/09/28 07:46:46;;;;;;;15.73;4.32;;;17.20;99.90;;;;;;6183000;23;20562;-77
2023/09/28 07:49:14;;;;;;;15.65;4.15;;;17.20;99.90;;;;;;6158341;23;20020;-76
2023/09/28 07:51:40;;;;;;;22.77;4.60;;;17.30;99.90;;;;;;6183147;23;20016;-79
2023/09/28 07:54:07;;;;;;;20.80;4.70;;;17.30;99.90;;;;;;6182942;23;20016;-79
2023/09/28 07:56:33;;;;;;;16.23;4.32;;;17.30;99.90;;;;;;6184713;23;20087;-78
2023/09/28 07:58:59;;;;;;;16.20;4.15;;;17.40;99.90;;;;;;6185205;23;20044;-78
2023/09/28 08:01:26;;;;;;;11.90;4.07;;;17.40;99.90;;;;;;6185344;23;20024;-79
2023/09/28 08:03:52;;;;;;;13.07;3.78;;;17.40;99.90;;;;;;6212242;23;20027;-79
2023/09/28 08:06:20;;;;;;;12.15;4.25;;;17.40;99.90;;;;;;6212449;23;20028;-80
2023/09/28 08:08:45;;;;;;;29.45;4.50;;;17.40;99.90;;;;;;6185191;23;20467;-78
2023/09/28 08:11:12;;;;;;;19.33;4.13;;;17.40;99.90;;;;;;6212396;23;20028;-79
2023/09/28 08:13:38;;;;;;;14.45;4.22;;;17.50;99.90;;;;;;6184897;23;20032;-78
2023/09/28 08:16:04;;;;;;;16.13;3.95;;;17.50;99.90;;;;;;6185114;23;20468;-77
2023/09/28 08:18:30;;;;;;;17.80;4.45;;;17.50;99.90;;;;;;6212147;23;20024;-78
2023/09/28 08:20:56;;;;;;;17.05;3.90;;;17.50;99.90;;;;;;6182985;23;20024;-78
2023/09/28 08:23:22;;;;;;;13.75;3.90;;;17.60;99.90;;;;;;6184714;23;20028;-77
2023/09/28 08:25:47;;;;;;;18.25;3.88;;;17.60;99.90;;;;;;6211611;23;20501;-78
2023/09/28 08:28:14;;;;;;;9.38;3.58;;;17.70;99.90;;;;;;6211878;23;20024;-79
2023/09/28 08:30:41;;;;;;;22.25;4.22;;;17.70;99.90;;;;;;6184575;23;20025;-76
2023/09/28 08:33:08;;;;;;;17.95;3.55;;;17.80;99.90;;;;;;6211703;23;20024;-77
2023/09/28 08:35:35;;;;;;;17.20;3.80;;;17.80;99.90;;;;;;6211921;23;20027;-76
2023/09/28 08:38:01;;;;;;;23.23;3.95;;;17.90;99.90;;;;;;6184914;23;20017;-76
2023/09/28 08:40:28;;;;;;;17.92;3.67;;;17.90;99.90;;;;;;6184790;23;20567;-77
2023/09/28 08:42:59;;;;;;;22.35;4.25;;;17.90;99.90;;;;;;6160351;23;20024;-77
2023/09/28 08:45:26;;;;;;;21.35;4.00;;;17.90;99.90;;;;;;6212390;23;20016;-76
2023/09/28 08:47:54;;;;;;;16.55;4.30;;;17.90;99.90;;;;;;6212616;23;20025;-77
2023/09/28 08:50:25;;;;;;;20.75;4.28;;;18.00;99.90;;;;;;6185619;23;20071;-76
2023/09/28 08:52:53;;;;;;;15.18;3.72;;;18.00;99.90;;;;;;6185059;23;20129;-76
2023/09/28 08:55:21;;;;;;;18.30;3.72;;;18.10;99.90;;;;;;6185530;23;20027;-77
2023/09/28 08:57:48;;;;;;;17.65;3.75;;;18.10;99.90;;;;;;6186778;23;20433;-76
2023/09/28 09:00:14;;;;;;;21.27;4.25;;;18.10;99.90;;;;;;6213482;23;20052;-76
2023/09/28 09:02:43;;;;;;;19.77;3.65;;;18.20;99.90;;;;;;6212957;23;20024;-76
2023/09/28 09:05:13;;;;;;;16.55;3.10;;;18.20;99.90;;;;;;6212404;23;20016;-76
2023/09/28 09:07:40;;;;;;;;;;;18.20;99.90;;;;;;6185261;23;20051;-81
2023/09/28 09:10:07;;;;;;;;;;;18.20;99.90;;;;;;6183689;23;19912;-74
2023/09/28 09:12:34;;;;;;;;;;;18.30;99.90;;;;;;6211591;23;19920;-73
2023/09/28 09:15:00;;;;;;;;;;;18.30;99.90;;;;;;6185706;23;20299;-71
2023/09/28 09:17:32;;;;;;;;;;;18.30;99.90;;;;;;6212762;23;19915;-71
2023/09/28 09:19:59;;;;;;;;;;;18.30;99.90;;;;;;6185346;23;20328;-76
2023/09/28 09:22:25;;;;;;;;;;;18.40;99.90;;;;;;6211958;23;19915;-76
2023/09/28 09:24:54;;;;;;;;;;;18.40;99.90;;;;;;6185497;23;20177;-76
2023/09/28 09:27:33;;;;;;;16.80;3.53;;;18.40;99.90;;;;;;6184655;23;19916;-76
2023/09/28 09:30:05;;;;;;;22.08;3.92;;;18.40;99.90;;;;;;6184863;23;20025;-76
2023/09/28 09:32:31;;;;;;;;;;;18.50;99.90;;;;;;6185303;23;20178;-76
2023/09/28 09:34:56;;;;;;;25.33;4.93;;;18.50;99.90;;;;;;6211176;23;19920;-76
2023/09/28 09:37:23;;;;;;;16.92;3.75;;;18.40;99.90;;;;;;6211725;23;20016;-75
2023/09/28 09:39:49;;;;;;;23.30;4.57;;;18.50;99.90;;;;;;6184618;23;20017;-76
2023/09/28 09:42:25;;;;;;;26.75;4.25;;;18.50;99.90;;;;;;6184662;23;20024;-76
2023/09/28 09:44:51;;;;;;;19.73;4.82;;;18.50;99.90;;;;;;6184607;23;20445;-76
2023/09/28 09:47:19;;;;;;;22.13;3.50;;;18.50;99.90;;;;;;6184539;23;20024;-74
2023/09/28 09:49:47;;;;;;;23.80;4.05;;;18.50;99.90;;;;;;6211414;23;20020;-75
2023/09/28 09:52:15;;;;;;;24.42;3.60;;;18.50;99.90;;;;;;6211320;23;20024;-75
2023/09/28 09:54:42;;;;;;;28.80;4.65;;;18.60;99.90;;;;;;6210116;23;20359;-74
2023/09/28 09:57:10;;;;;;;26.73;4.90;;;18.70;99.90;;;;;;6182904;23;20380;-82
2023/09/28 09:59:38;;;;;;;28.45;4.40;;;18.80;99.90;;;;;;6181436;23;20368;-78
2023/09/28 10:02:05;;;;;;;34.15;4.68;;;18.90;99.90;;;;;;6182264;23;20377;-82
2023/09/28 10:04:31;;;;;;;22.20;4.43;;;19.00;99.90;;;;;;6182825;23;20433;-80
2023/09/28 10:07:00;;;;;;;21.98;4.50;;;19.10;99.90;;;;;;6209485;23;20360;-83
2023/09/28 10:09:26;;;;;;;26.13;4.65;;;19.10;99.90;;;;;;6209763;23;20755;-83
2023/09/28 10:11:52;;;;;;;25.03;4.47;;;19.20;99.90;;;;;;6210281;23;20407;-85
2023/09/28 10:14:21;;;;;;;21.02;4.38;;;19.20;99.90;;;;;;6210224;23;20399;-84
2023/09/28 10:16:53;;;;;;;22.23;3.97;;;19.30;99.90;;;;;;6183133;23;20386;-83
2023/09/28 10:19:22;;;;;;;24.83;4.20;;;19.40;99.90;;;;;;6182562;23;20856;-84
2023/09/28 10:21:51;;;;;;;26.90;4.53;;;19.40;99.90;;;;;;6183558;23;20379;-84
2023/09/28 10:24:17;;;;;;;22.90;4.43;;;19.50;99.90;;;;;;6183585;23;20383;-83
2023/09/28 10:26:52;;;;;;;23.90;4.00;;;19.50;99.90;;;;;;6183514;23;20391;-82
2023/09/28 10:29:30;;;;;;;28.25;4.80;;;19.60;99.90;;;;;;6158070;23;20693;-82
2023/09/28 10:31:57;;;;;;;24.20;4.30;;;19.60;99.90;;;;;;6209503;23;20390;-74
2023/09/28 10:34:24;;;;;;;23.88;4.38;;;19.60;99.90;;;;;;6209476;23;20379;-74
2023/09/28 10:37:05;;;;;;;24.13;3.70;;;19.70;99.90;;;;;;6210105;23;20487;-73
2023/09/28 10:39:31;;;;;;;21.98;4.00;;;19.70;99.90;;;;;;6209739;23;20772;-74
2023/09/28 10:42:06;;;;;;;21.10;3.88;;;19.70;99.90;;;;;;6209696;23;20371;-74
2023/09/28 10:44:32;;;;;;;27.85;4.25;;;19.70;99.90;;;;;;6209349;23;20568;-74
2023/09/28 10:46:58;;;;;;;21.58;4.05;;;19.80;99.90;;;;;;6209597;23;21000;-74
2023/09/28 10:49:26;;;;;;;22.70;4.10;;;19.80;99.90;;;;;;6209384;23;20364;-74
2023/09/28 10:51:52;;;;;;;27.27;3.83;;;19.80;99.90;;;;;;6209341;23;20451;-74
2023/09/28 10:54:19;;;;;;;29.63;4.22;;;19.80;99.90;;;;;;6209187;23;20364;-74
2023/09/28 10:56:48;;;;;;;22.85;4.45;;;19.90;99.90;;;;;;6182077;23;20383;-74
2023/09/28 10:59:15;;;;;;;29.23;4.38;;;20.00;99.90;;;;;;6182397;23;20380;-74
2023/09/28 11:01:45;;;;;;;28.35;4.30;;;20.00;99.90;;;;;;6209178;23;20677;-74
2023/09/28 11:04:12;;;;;;;26.98;4.30;;;20.00;99.90;;;;;;6209386;23;20415;-75
2023/09/28 11:06:40;;;;;;;22.23;3.70;;;20.00;99.90;;;;;;6209211;23;20700;-76
2023/09/28 11:09:09;;;;;;;18.95;3.65;;;20.10;99.90;;;;;;6182445;23;20470;-77
2023/09/28 11:11:37;;;;;;;23.52;4.00;;;20.10;99.90;;;;;;6209570;23;20378;-78
2023/09/28 11:14:05;;;;;;;19.75;3.83;;;20.20;99.90;;;;;;6209402;23;20394;-78
2023/09/28 11:16:33;;;;;;;20.37;3.83;;;20.10;99.90;;;;;;6182739;23;20438;-77
2023/09/28 11:18:59;;;;;;;17.70;3.78;;;20.10;99.90;;;;;;6182741;23;20376;-78
2023/09/28 11:21:26;;;;;;;19.85;3.45;;;20.10;99.90;;;;;;6182744;23;20387;-78
2023/09/28 11:23:52;;;;;;;21.02;3.58;;;20.10;99.90;;;;;;6209504;23;20455;-77
2023/09/28 11:26:23;;;;;;;25.52;3.90;;;20.10;99.90;;;;;;6210857;23;20395;-78
2023/09/28 11:28:50;;;;;;;26.45;4.05;;;20.10;99.90;;;;;;6182769;23;20375;-78
2023/09/28 11:31:16;;;;;;;24.50;3.47;;;20.10;99.90;;;;;;6182225;23;20467;-78
2023/09/28 11:33:44;;;;;;;24.05;4.35;;;20.20;99.90;;;;;;6209206;23;20427;-78
2023/09/28 11:36:17;;;;;;;20.77;4.30;;;20.20;99.90;;;;;;6183107;23;20425;-77
2023/09/28 11:38:44;;;;;;;23.02;4.10;;;20.20;99.90;;;;;;6209771;23;20360;-77
2023/09/28 11:41:11;;;;;;;21.15;4.05;;;20.30;99.90;;;;;;6209931;23;20372;-78
2023/09/28 11:43:54;;;;;;;25.20;4.63;;;20.40;99.90;;;;;;6210483;23;20368;-78
2023/09/28 11:46:34;;;;;;;20.80;4.10;;;20.40;99.90;;;;;;6185055;23;20401;-78
2023/09/28 11:49:04;;;;;;;27.13;4.03;;;20.40;99.90;;;;;;6182964;23;20383;-78
2023/09/28 11:51:34;;;;;;;22.48;4.50;;;20.40;99.90;;;;;;6183264;23;20375;-78
2023/09/28 11:54:11;;;;;;;24.70;4.32;;;20.40;99.90;;;;;;6182910;23;20486;-78
2023/09/28 11:56:37;;;;;;;25.38;3.95;;;20.40;99.90;;;;;;6209710;23;20757;-78
2023/09/28 11:59:03;;;;;;;22.17;3.53;;;20.50;99.90;;;;;;6182674;23;20387;-78
2023/09/28 12:01:29;;;;;;;20.40;4.25;;;20.50;99.90;;;;;;6209344;23;20356;-78
2023/09/28 12:03:57;;;;;;;21.73;4.23;;;20.50;99.90;;;;;;6209337;23;20808;-78
2023/09/28 12:06:22;;;;;;;21.15;4.03;;;20.50;99.90;;;;;;6208949;23;20399;-78
2023/09/28 12:08:48;;;;;;;24.50;4.30;;;20.50;99.90;;;;;;6157596;23;20447;-78
2023/09/28 12:11:14;;;;;;;22.05;4.05;;;20.60;99.90;;;;;;6182240;23;20421;-78
2023/09/28 12:13:40;;;;;;;18.00;4.25;;;20.60;99.90;;;;;;6182084;23;20391;-76
2023/09/28 12:16:06;;;;;;;22.60;4.30;;;20.50;99.90;;;;;;6181805;23;20470;-77
2023/09/28 12:18:35;;;;;;;23.80;4.28;;;20.50;99.90;;;;;;6209128;23;20395;-78
2023/09/28 12:21:02;;;;;;;17.50;3.75;;;20.60;99.90;;;;;;6209340;23;20700;-77
2023/09/28 12:23:28;;;;;;;19.40;3.78;;;20.60;99.90;;;;;;6181943;23;20466;-78
2023/09/28 12:25:57;;;;;;;20.60;3.85;;;20.60;99.90;;;;;;6181924;23;20477;-78
2023/09/28 12:28:22;;;;;;;22.98;4.38;;;20.60;99.90;;;;;;6157041;23;20613;-77
2023/09/28 12:30:48;;;;;;;19.30;4.00;;;20.60;99.90;;;;;;6208548;23;20415;-78
2023/09/28 12:33:14;;;;;;;23.40;4.10;;;20.70;99.90;;;;;;6182020;23;20399;-78
2023/09/28 12:35:40;;;;;;;20.85;4.35;;;20.70;99.90;;;;;;6182463;23;20375;-78
2023/09/28 12:38:09;;;;;;;18.08;4.00;;;20.60;99.90;;;;;;6209317;23;20394;-78
2023/09/28 12:40:35;;;;;;;22.70;4.05;;;20.70;99.90;;;;;;6182454;23;20749;-76
2023/09/28 12:43:04;;;;;;;22.48;4.00;;;20.70;99.90;;;;;;6183354;23;20383;-77